sensor_id;sensor_type;location;lat;lon;timestamp;P1;durP1;ratioP1;P2;durP2;ratioP2
39324;SDS011;25037;49.488;9.900;2023-03-04T00:02:13;25.13;;;12.70;;
39324;SDS011;25037;49.488;9.900;2023-03-04T00:04:40;23.65;;;13.70;;
39324;SDS011;25037;49.488;9.900;2023-03-04T00:07:07;22.67;;;12.90;;
39324;SDS011;25037;49.488;9.900;2023-03-04T00:09:34;19.55;;;11.25;;
39324;SDS011;25037;49.488;9.900;2023-03-04T00:12:00;22.77;;;11.13;;
39324;SDS011;25037;49.488;9.900;2023-03-04T00:14:27;23.38;;;11.75;;
39324;SDS011;25037;49.488;9.900;2023-03-04T00:16:55;19.27;;;11.18;;
39324;SDS011;25037;49.488;9.900;2023-03-04T00:19:22;20.42;;;11.95;;
39324;SDS011;25037;49.488;9.900;2023-03-04T00:21:49;20.15;;;11.50;;
39324;SDS011;25037;49.488;9.900;2023-03-04T00:24:15;21.98;;;11.55;;
39324;SDS011;25037;49.488;9.900;2023-03-04T00:26:42;19.92;;;10.70;;
39324;SDS011;25037;49.488;9.900;2023-03-04T00:29:09;20.60;;;10.82;;
39324;SDS011;25037;49.488;9.900;2023-03-04T00:31:35;19.88;;;11.32;;
39324;SDS011;25037;49.488;9.900;2023-03-04T00:34:02;21.50;;;11.57;;
39324;SDS011;25037;49.488;9.900;2023-03-04T00:36:29;22.73;;;11.27;;
39324;SDS011;25037;49.488;9.900;2023-03-04T00:38:55;20.70;;;9.98;;
39324;SDS011;25037;49.488;9.900;2023-03-04T00:41:22;20.65;;;11.32;;
39324;SDS011;25037;49.488;9.900;2023-03-04T00:43:49;22.50;;;12.82;;
39324;SDS011;25037;49.488;9.900;2023-03-04T00:46:15;22.38;;;12.52;;
39324;SDS011;25037;49.488;9.900;2023-03-04T00:48:42;20.15;;;11.30;;
39324;SDS011;25037;49.488;9.900;2023-03-04T00:51:09;19.05;;;11.07;;
39324;SDS011;25037;49.488;9.900;2023-03-04T00:53:35;21.52;;;10.23;;
39324;SDS011;25037;49.488;9.900;2023-03-04T00:56:02;19.13;;;10.40;;
39324;SDS011;25037;49.488;9.900;2023-03-04T00:58:29;18.48;;;10.25;;
39324;SDS011;25037;49.488;9.900;2023-03-04T01:00:56;18.23;;;9.77;;
39324;SDS011;25037;49.488;9.900;2023-03-04T01:03:22;17.38;;;10.35;;
39324;SDS011;25037;49.488;9.900;2023-03-04T01:05:51;20.25;;;10.45;;
39324;SDS011;25037;49.488;9.900;2023-03-04T01:08:18;18.63;;;10.07;;
39324;SDS011;25037;49.488;9.900;2023-03-04T01:10:45;18.58;;;9.23;;
39324;SDS011;25037;49.488;9.900;2023-03-04T01:13:13;20.38;;;10.55;;
39324;SDS011;25037;49.488;9.900;2023-03-04T01:15:40;19.45;;;10.75;;
39324;SDS011;25037;49.488;9.900;2023-03-04T01:18:06;23.63;;;12.18;;
39324;SDS011;25037;49.488;9.900;2023-03-04T01:20:33;22.73;;;11.25;;
39324;SDS011;25037;49.488;9.900;2023-03-04T01:23:00;20.98;;;11.73;;
39324;SDS011;25037;49.488;9.900;2023-03-04T01:25:27;23.02;;;11.00;;
39324;SDS011;25037;49.488;9.900;2023-03-04T01:27:53;20.15;;;11.05;;
39324;SDS011;25037;49.488;9.900;2023-03-04T01:30:20;19.30;;;10.43;;
39324;SDS011;25037;49.488;9.900;2023-03-04T01:32:47;21.50;;;10.60;;
39324;SDS011;25037;49.488;9.900;2023-03-04T01:35:14;19.75;;;9.80;;
39324;SDS011;25037;49.488;9.900;2023-03-04T01:37:40;20.35;;;11.02;;
39324;SDS011;25037;49.488;9.900;2023-03-04T01:40:07;24.88;;;11.32;;
39324;SDS011;25037;49.488;9.900;2023-03-04T01:42:34;24.35;;;12.95;;
39324;SDS011;25037;49.488;9.900;2023-03-04T01:45:02;23.05;;;11.77;;
39324;SDS011;25037;49.488;9.900;2023-03-04T01:47:30;22.02;;;11.43;;
39324;SDS011;25037;49.488;9.900;2023-03-04T01:50:00;22.17;;;12.25;;
39324;SDS011;25037;49.488;9.900;2023-03-04T01:52:29;23.20;;;11.43;;
39324;SDS011;25037;49.488;9.900;2023-03-04T01:54:56;23.52;;;11.50;;
39324;SDS011;25037;49.488;9.900;2023-03-04T01:57:24;23.25;;;12.05;;
39324;SDS011;25037;49.488;9.900;2023-03-04T02:00:37;23.10;;;11.85;;
39324;SDS011;25037;49.488;9.900;2023-03-04T02:02:52;22.95;;;10.82;;
39324;SDS011;25037;49.488;9.900;2023-03-04T02:05:22;22.85;;;11.00;;
39324;SDS011;25037;49.488;9.900;2023-03-04T02:07:50;26.50;;;12.43;;
39324;SDS011;25037;49.488;9.900;2023-03-04T02:10:17;19.75;;;11.27;;
39324;SDS011;25037;49.488;9.900;2023-03-04T02:12:44;19.95;;;11.00;;
39324;SDS011;25037;49.488;9.900;2023-03-04T02:15:11;19.38;;;10.63;;
39324;SDS011;25037;49.488;9.900;2023-03-04T02:17:38;22.38;;;11.75;;
39324;SDS011;25037;49.488;9.900;2023-03-04T02:22:42;19.52;;;10.10;;
39324;SDS011;25037;49.488;9.900;2023-03-04T02:25:20;20.33;;;10.90;;
39324;SDS011;25037;49.488;9.900;2023-03-04T02:27:49;24.75;;;10.27;;
39324;SDS011;25037;49.488;9.900;2023-03-04T02:30:18;18.98;;;10.30;;
39324;SDS011;25037;49.488;9.900;2023-03-04T02:32:46;21.85;;;10.88;;
39324;SDS011;25037;49.488;9.900;2023-03-04T02:35:15;20.25;;;10.65;;
39324;SDS011;25037;49.488;9.900;2023-03-04T02:37:43;20.27;;;10.27;;
39324;SDS011;25037;49.488;9.900;2023-03-04T02:40:14;19.13;;;10.52;;
39324;SDS011;25037;49.488;9.900;2023-03-04T02:42:43;20.10;;;10.73;;
39324;SDS011;25037;49.488;9.900;2023-03-04T02:48:18;19.80;;;10.90;;
39324;SDS011;25037;49.488;9.900;2023-03-04T02:50:50;16.95;;;10.00;;
39324;SDS011;25037;49.488;9.900;2023-03-04T02:53:18;22.58;;;11.27;;
39324;SDS011;25037;49.488;9.900;2023-03-04T02:55:46;22.08;;;11.80;;
39324;SDS011;25037;49.488;9.900;2023-03-04T02:58:14;18.80;;;10.60;;
39324;SDS011;25037;49.488;9.900;2023-03-04T03:00:40;18.23;;;10.30;;
39324;SDS011;25037;49.488;9.900;2023-03-04T03:03:07;20.20;;;10.05;;
39324;SDS011;25037;49.488;9.900;2023-03-04T03:05:35;18.17;;;10.18;;
39324;SDS011;25037;49.488;9.900;2023-03-04T03:08:03;22.60;;;11.75;;
39324;SDS011;25037;49.488;9.900;2023-03-04T03:10:30;18.42;;;9.27;;
39324;SDS011;25037;49.488;9.900;2023-03-04T03:12:57;19.48;;;9.63;;
39324;SDS011;25037;49.488;9.900;2023-03-04T03:15:24;16.73;;;9.85;;
39324;SDS011;25037;49.488;9.900;2023-03-04T03:17:50;16.08;;;8.10;;
39324;SDS011;25037;49.488;9.900;2023-03-04T03:20:17;18.30;;;9.85;;
39324;SDS011;25037;49.488;9.900;2023-03-04T03:22:44;23.30;;;10.25;;
39324;SDS011;25037;49.488;9.900;2023-03-04T03:25:12;15.35;;;9.00;;
39324;SDS011;25037;49.488;9.900;2023-03-04T03:27:39;22.45;;;10.02;;
39324;SDS011;25037;49.488;9.900;2023-03-04T03:30:07;19.77;;;9.27;;
39324;SDS011;25037;49.488;9.900;2023-03-04T03:32:35;19.42;;;9.88;;
39324;SDS011;25037;49.488;9.900;2023-03-04T03:35:02;19.05;;;10.52;;
39324;SDS011;25037;49.488;9.900;2023-03-04T03:37:29;18.75;;;9.38;;
39324;SDS011;25037;49.488;9.900;2023-03-04T03:39:55;19.60;;;10.35;;
39324;SDS011;25037;49.488;9.900;2023-03-04T03:42:22;22.48;;;10.95;;
39324;SDS011;25037;49.488;9.900;2023-03-04T03:44:49;18.33;;;10.02;;
39324;SDS011;25037;49.488;9.900;2023-03-04T03:47:15;20.58;;;9.93;;
39324;SDS011;25037;49.488;9.900;2023-03-04T03:49:42;18.90;;;9.27;;
39324;SDS011;25037;49.488;9.900;2023-03-04T03:52:09;20.13;;;10.25;;
39324;SDS011;25037;49.488;9.900;2023-03-04T03:54:36;18.70;;;10.13;;
39324;SDS011;25037;49.488;9.900;2023-03-04T03:57:03;20.77;;;10.02;;
39324;SDS011;25037;49.488;9.900;2023-03-04T03:59:29;24.10;;;9.75;;
39324;SDS011;25037;49.488;9.900;2023-03-04T04:01:56;15.88;;;8.60;;
39324;SDS011;25037;49.488;9.900;2023-03-04T04:04:23;19.73;;;10.43;;
39324;SDS011;25037;49.488;9.900;2023-03-04T04:06:49;18.73;;;10.77;;
39324;SDS011;25037;49.488;9.900;2023-03-04T04:09:16;21.35;;;10.25;;
39324;SDS011;25037;49.488;9.900;2023-03-04T04:11:43;17.23;;;9.20;;
39324;SDS011;25037;49.488;9.900;2023-03-04T04:14:12;19.75;;;10.55;;
39324;SDS011;25037;49.488;9.900;2023-03-04T04:16:40;22.00;;;10.85;;
39324;SDS011;25037;49.488;9.900;2023-03-04T04:19:08;21.52;;;10.95;;
39324;SDS011;25037;49.488;9.900;2023-03-04T04:21:41;21.55;;;11.27;;
39324;SDS011;25037;49.488;9.900;2023-03-04T04:24:07;26.23;;;10.95;;
39324;SDS011;25037;49.488;9.900;2023-03-04T04:26:34;21.77;;;11.65;;
39324;SDS011;25037;49.488;9.900;2023-03-04T04:29:01;24.20;;;11.40;;
39324;SDS011;25037;49.488;9.900;2023-03-04T04:31:28;23.08;;;13.27;;
39324;SDS011;25037;49.488;9.900;2023-03-04T04:33:54;25.65;;;12.45;;
39324;SDS011;25037;49.488;9.900;2023-03-04T04:36:21;28.67;;;13.07;;
39324;SDS011;25037;49.488;9.900;2023-03-04T04:38:48;22.65;;;12.65;;
39324;SDS011;25037;49.488;9.900;2023-03-04T04:41:19;20.75;;;11.63;;
39324;SDS011;25037;49.488;9.900;2023-03-04T04:43:57;23.33;;;12.02;;
39324;SDS011;25037;49.488;9.900;2023-03-04T04:46:23;19.63;;;10.40;;
39324;SDS011;25037;49.488;9.900;2023-03-04T04:48:51;25.83;;;11.98;;
39324;SDS011;25037;49.488;9.900;2023-03-04T04:51:18;18.00;;;9.60;;
39324;SDS011;25037;49.488;9.900;2023-03-04T04:53:44;17.52;;;10.15;;
39324;SDS011;25037;49.488;9.900;2023-03-04T04:56:15;21.52;;;10.88;;
39324;SDS011;25037;49.488;9.900;2023-03-04T04:58:43;22.25;;;11.02;;
39324;SDS011;25037;49.488;9.900;2023-03-04T05:01:10;19.98;;;11.13;;
39324;SDS011;25037;49.488;9.900;2023-03-04T05:03:37;21.33;;;10.82;;
39324;SDS011;25037;49.488;9.900;2023-03-04T05:06:06;21.15;;;10.73;;
39324;SDS011;25037;49.488;9.900;2023-03-04T05:08:35;19.00;;;10.68;;
39324;SDS011;25037;49.488;9.900;2023-03-04T05:11:03;21.48;;;10.82;;
39324;SDS011;25037;49.488;9.900;2023-03-04T05:13:30;20.80;;;11.00;;
39324;SDS011;25037;49.488;9.900;2023-03-04T05:15:58;21.75;;;10.82;;
39324;SDS011;25037;49.488;9.900;2023-03-04T05:18:25;20.85;;;11.40;;
39324;SDS011;25037;49.488;9.900;2023-03-04T05:20:53;22.67;;;12.60;;
39324;SDS011;25037;49.488;9.900;2023-03-04T05:23:21;23.70;;;12.70;;
39324;SDS011;25037;49.488;9.900;2023-03-04T05:25:49;19.63;;;11.98;;
39324;SDS011;25037;49.488;9.900;2023-03-04T05:28:16;24.42;;;13.10;;
39324;SDS011;25037;49.488;9.900;2023-03-04T05:30:43;31.73;;;13.95;;
39324;SDS011;25037;49.488;9.900;2023-03-04T05:33:10;25.60;;;12.63;;
39324;SDS011;25037;49.488;9.900;2023-03-04T05:35:38;24.45;;;12.43;;
39324;SDS011;25037;49.488;9.900;2023-03-04T05:38:08;22.25;;;11.98;;
39324;SDS011;25037;49.488;9.900;2023-03-04T05:40:36;20.50;;;11.25;;
39324;SDS011;25037;49.488;9.900;2023-03-04T05:43:04;22.85;;;12.07;;
39324;SDS011;25037;49.488;9.900;2023-03-04T05:45:31;26.42;;;12.85;;
39324;SDS011;25037;49.488;9.900;2023-03-04T05:47:58;22.65;;;12.35;;
39324;SDS011;25037;49.488;9.900;2023-03-04T05:50:25;22.33;;;11.93;;
39324;SDS011;25037;49.488;9.900;2023-03-04T05:52:52;21.65;;;11.95;;
39324;SDS011;25037;49.488;9.900;2023-03-04T05:55:18;22.05;;;12.45;;
39324;SDS011;25037;49.488;9.900;2023-03-04T05:57:45;21.05;;;11.88;;
39324;SDS011;25037;49.488;9.900;2023-03-04T06:00:13;21.65;;;12.77;;
39324;SDS011;25037;49.488;9.900;2023-03-04T06:02:40;26.42;;;12.50;;
39324;SDS011;25037;49.488;9.900;2023-03-04T06:05:08;23.15;;;13.55;;
39324;SDS011;25037;49.488;9.900;2023-03-04T06:07:38;23.88;;;13.80;;
39324;SDS011;25037;49.488;9.900;2023-03-04T06:10:05;22.95;;;12.88;;
39324;SDS011;25037;49.488;9.900;2023-03-04T06:12:32;27.00;;;13.77;;
39324;SDS011;25037;49.488;9.900;2023-03-04T06:14:59;25.70;;;14.57;;
39324;SDS011;25037;49.488;9.900;2023-03-04T06:17:26;23.58;;;13.48;;
39324;SDS011;25037;49.488;9.900;2023-03-04T06:19:52;23.77;;;12.55;;
39324;SDS011;25037;49.488;9.900;2023-03-04T06:22:19;22.65;;;13.18;;
39324;SDS011;25037;49.488;9.900;2023-03-04T06:24:45;24.15;;;14.65;;
39324;SDS011;25037;49.488;9.900;2023-03-04T06:27:12;23.42;;;12.45;;
39324;SDS011;25037;49.488;9.900;2023-03-04T06:29:39;25.45;;;13.52;;
39324;SDS011;25037;49.488;9.900;2023-03-04T06:32:05;25.70;;;14.65;;
39324;SDS011;25037;49.488;9.900;2023-03-04T06:34:32;23.42;;;13.85;;
39324;SDS011;25037;49.488;9.900;2023-03-04T06:36:59;24.10;;;13.15;;
39324;SDS011;25037;49.488;9.900;2023-03-04T06:39:26;25.15;;;13.05;;
39324;SDS011;25037;49.488;9.900;2023-03-04T06:41:52;24.33;;;13.55;;
39324;SDS011;25037;49.488;9.900;2023-03-04T06:44:19;24.02;;;14.02;;
39324;SDS011;25037;49.488;9.900;2023-03-04T06:46:46;24.55;;;13.75;;
39324;SDS011;25037;49.488;9.900;2023-03-04T06:49:12;26.13;;;13.38;;
39324;SDS011;25037;49.488;9.900;2023-03-04T06:51:39;24.52;;;13.13;;
39324;SDS011;25037;49.488;9.900;2023-03-04T06:54:06;27.77;;;14.75;;
39324;SDS011;25037;49.488;9.900;2023-03-04T06:56:32;30.48;;;14.45;;
39324;SDS011;25037;49.488;9.900;2023-03-04T06:58:59;24.38;;;14.40;;
39324;SDS011;25037;49.488;9.900;2023-03-04T07:01:26;26.25;;;14.50;;
39324;SDS011;25037;49.488;9.900;2023-03-04T07:03:54;26.50;;;14.43;;
39324;SDS011;25037;49.488;9.900;2023-03-04T07:06:23;27.33;;;15.85;;
39324;SDS011;25037;49.488;9.900;2023-03-04T07:08:50;29.50;;;17.20;;
39324;SDS011;25037;49.488;9.900;2023-03-04T07:11:17;25.52;;;14.93;;
39324;SDS011;25037;49.488;9.900;2023-03-04T07:13:45;28.45;;;15.68;;
39324;SDS011;25037;49.488;9.900;2023-03-04T07:16:13;26.33;;;15.13;;
39324;SDS011;25037;49.488;9.900;2023-03-04T07:18:43;26.35;;;14.35;;
39324;SDS011;25037;49.488;9.900;2023-03-04T07:21:10;27.48;;;15.65;;
39324;SDS011;25037;49.488;9.900;2023-03-04T07:23:39;25.20;;;15.75;;
39324;SDS011;25037;49.488;9.900;2023-03-04T07:26:06;27.42;;;14.80;;
39324;SDS011;25037;49.488;9.900;2023-03-04T07:28:34;27.48;;;16.73;;
39324;SDS011;25037;49.488;9.900;2023-03-04T07:31:07;28.70;;;16.88;;
39324;SDS011;25037;49.488;9.900;2023-03-04T07:33:35;28.02;;;15.70;;
39324;SDS011;25037;49.488;9.900;2023-03-04T07:36:02;26.77;;;15.75;;
39324;SDS011;25037;49.488;9.900;2023-03-04T07:38:28;29.45;;;16.73;;
39324;SDS011;25037;49.488;9.900;2023-03-04T07:40:56;27.30;;;16.70;;
39324;SDS011;25037;49.488;9.900;2023-03-04T07:43:23;28.33;;;15.98;;
39324;SDS011;25037;49.488;9.900;2023-03-04T07:45:50;25.85;;;16.58;;
39324;SDS011;25037;49.488;9.900;2023-03-04T07:48:16;31.05;;;17.35;;
39324;SDS011;25037;49.488;9.900;2023-03-04T07:50:43;28.52;;;16.88;;
39324;SDS011;25037;49.488;9.900;2023-03-04T07:53:10;28.70;;;17.88;;
39324;SDS011;25037;49.488;9.900;2023-03-04T07:55:36;28.58;;;17.55;;
39324;SDS011;25037;49.488;9.900;2023-03-04T07:58:03;31.95;;;19.20;;
39324;SDS011;25037;49.488;9.900;2023-03-04T08:00:30;30.02;;;18.25;;
39324;SDS011;25037;49.488;9.900;2023-03-04T08:02:56;27.15;;;16.88;;
39324;SDS011;25037;49.488;9.900;2023-03-04T08:05:23;24.85;;;15.52;;
39324;SDS011;25037;49.488;9.900;2023-03-04T08:07:50;26.98;;;15.70;;
39324;SDS011;25037;49.488;9.900;2023-03-04T08:10:16;27.58;;;14.77;;
39324;SDS011;25037;49.488;9.900;2023-03-04T08:12:43;25.70;;;15.77;;
39324;SDS011;25037;49.488;9.900;2023-03-04T08:15:10;29.30;;;15.10;;
39324;SDS011;25037;49.488;9.900;2023-03-04T08:17:36;26.02;;;14.95;;
39324;SDS011;25037;49.488;9.900;2023-03-04T08:20:03;26.00;;;15.18;;
39324;SDS011;25037;49.488;9.900;2023-03-04T08:22:30;22.58;;;14.48;;
39324;SDS011;25037;49.488;9.900;2023-03-04T08:24:57;23.23;;;14.48;;
39324;SDS011;25037;49.488;9.900;2023-03-04T08:27:24;26.30;;;15.43;;
39324;SDS011;25037;49.488;9.900;2023-03-04T08:29:50;20.63;;;12.32;;
39324;SDS011;25037;49.488;9.900;2023-03-04T08:32:17;25.35;;;13.30;;
39324;SDS011;25037;49.488;9.900;2023-03-04T08:34:44;22.25;;;13.02;;
39324;SDS011;25037;49.488;9.900;2023-03-04T08:37:10;18.52;;;12.25;;
39324;SDS011;25037;49.488;9.900;2023-03-04T08:39:37;20.17;;;11.98;;
39324;SDS011;25037;49.488;9.900;2023-03-04T08:42:04;19.90;;;13.68;;
39324;SDS011;25037;49.488;9.900;2023-03-04T08:44:30;20.15;;;13.25;;
39324;SDS011;25037;49.488;9.900;2023-03-04T08:46:57;20.02;;;12.73;;
39324;SDS011;25037;49.488;9.900;2023-03-04T08:49:24;19.33;;;13.27;;
39324;SDS011;25037;49.488;9.900;2023-03-04T08:51:50;18.38;;;12.65;;
39324;SDS011;25037;49.488;9.900;2023-03-04T08:54:17;18.20;;;11.52;;
39324;SDS011;25037;49.488;9.900;2023-03-04T08:56:44;19.30;;;12.20;;
39324;SDS011;25037;49.488;9.900;2023-03-04T08:59:10;18.65;;;12.38;;
39324;SDS011;25037;49.488;9.900;2023-03-04T09:01:37;18.00;;;12.38;;
39324;SDS011;25037;49.488;9.900;2023-03-04T09:04:04;18.85;;;12.23;;
39324;SDS011;25037;49.488;9.900;2023-03-04T09:06:30;19.48;;;11.43;;
39324;SDS011;25037;49.488;9.900;2023-03-04T09:08:57;20.77;;;12.27;;
39324;SDS011;25037;49.488;9.900;2023-03-04T09:11:24;19.40;;;12.18;;
39324;SDS011;25037;49.488;9.900;2023-03-04T09:13:50;19.45;;;12.23;;
39324;SDS011;25037;49.488;9.900;2023-03-04T09:16:17;16.75;;;11.35;;
39324;SDS011;25037;49.488;9.900;2023-03-04T09:18:44;19.95;;;12.68;;
39324;SDS011;25037;49.488;9.900;2023-03-04T09:21:11;17.80;;;11.48;;
39324;SDS011;25037;49.488;9.900;2023-03-04T09:23:38;17.92;;;11.20;;
39324;SDS011;25037;49.488;9.900;2023-03-04T09:26:15;16.60;;;11.82;;
39324;SDS011;25037;49.488;9.900;2023-03-04T09:28:49;19.30;;;12.07;;
39324;SDS011;25037;49.488;9.900;2023-03-04T09:31:17;15.68;;;10.75;;
39324;SDS011;25037;49.488;9.900;2023-03-04T09:33:44;17.75;;;11.90;;
39324;SDS011;25037;49.488;9.900;2023-03-04T09:36:11;17.30;;;12.38;;
39324;SDS011;25037;49.488;9.900;2023-03-04T09:38:39;18.63;;;12.68;;
39324;SDS011;25037;49.488;9.900;2023-03-04T09:41:08;15.80;;;11.93;;
39324;SDS011;25037;49.488;9.900;2023-03-04T09:43:40;20.15;;;12.27;;
39324;SDS011;25037;49.488;9.900;2023-03-04T09:46:09;15.05;;;11.57;;
39324;SDS011;25037;49.488;9.900;2023-03-04T09:48:46;15.52;;;10.70;;
39324;SDS011;25037;49.488;9.900;2023-03-04T09:51:38;17.58;;;11.45;;
39324;SDS011;25037;49.488;9.900;2023-03-04T09:56:48;18.13;;;12.38;;
39324;SDS011;25037;49.488;9.900;2023-03-04T10:01:52;18.95;;;12.00;;
39324;SDS011;25037;49.488;9.900;2023-03-04T10:04:38;19.95;;;12.40;;
39324;SDS011;25037;49.488;9.900;2023-03-04T10:07:12;17.25;;;11.13;;
39324;SDS011;25037;49.488;9.900;2023-03-04T10:09:45;16.85;;;11.15;;
39324;SDS011;25037;49.488;9.900;2023-03-04T10:12:20;19.95;;;12.43;;
39324;SDS011;25037;49.488;9.900;2023-03-04T10:17:23;15.15;;;10.38;;
39324;SDS011;25037;49.488;9.900;2023-03-04T10:22:35;17.17;;;11.52;;
39324;SDS011;25037;49.488;9.900;2023-03-04T10:25:22;15.80;;;11.63;;
39324;SDS011;25037;49.488;9.900;2023-03-04T10:33:25;15.35;;;10.90;;
39324;SDS011;25037;49.488;9.900;2023-03-04T10:38:36;15.55;;;11.00;;
39324;SDS011;25037;49.488;9.900;2023-03-04T10:41:12;14.73;;;10.52;;
39324;SDS011;25037;49.488;9.900;2023-03-04T10:43:40;14.98;;;10.07;;
39324;SDS011;25037;49.488;9.900;2023-03-04T10:46:10;15.07;;;11.00;;
39324;SDS011;25037;49.488;9.900;2023-03-04T10:48:39;15.40;;;10.48;;
39324;SDS011;25037;49.488;9.900;2023-03-04T10:51:12;14.80;;;10.52;;
39324;SDS011;25037;49.488;9.900;2023-03-04T10:53:45;12.70;;;9.68;;
39324;SDS011;25037;49.488;9.900;2023-03-04T11:01:53;15.38;;;10.85;;
39324;SDS011;25037;49.488;9.900;2023-03-04T11:04:22;15.32;;;11.00;;
39324;SDS011;25037;49.488;9.900;2023-03-04T11:06:50;15.98;;;10.82;;
39324;SDS011;25037;49.488;9.900;2023-03-04T11:09:25;15.32;;;11.02;;
39324;SDS011;25037;49.488;9.900;2023-03-04T11:11:54;14.55;;;10.93;;
39324;SDS011;25037;49.488;9.900;2023-03-04T11:14:27;14.10;;;11.05;;
39324;SDS011;25037;49.488;9.900;2023-03-04T11:17:23;14.05;;;10.65;;
39324;SDS011;25037;49.488;9.900;2023-03-04T11:20:38;13.98;;;10.50;;
39324;SDS011;25037;49.488;9.900;2023-03-04T11:22:51;14.73;;;10.95;;
39324;SDS011;25037;49.488;9.900;2023-03-04T11:25:25;15.32;;;11.15;;
39324;SDS011;25037;49.488;9.900;2023-03-04T11:28:16;17.95;;;10.57;;
39324;SDS011;25037;49.488;9.900;2023-03-04T11:30:49;15.25;;;10.50;;
39324;SDS011;25037;49.488;9.900;2023-03-04T11:33:22;16.67;;;10.32;;
39324;SDS011;25037;49.488;9.900;2023-03-04T11:35:56;13.57;;;9.20;;
39324;SDS011;25037;49.488;9.900;2023-03-04T11:38:42;13.45;;;8.85;;
39324;SDS011;25037;49.488;9.900;2023-03-04T11:41:16;15.73;;;9.40;;
39324;SDS011;25037;49.488;9.900;2023-03-04T11:43:53;16.13;;;9.00;;
39324;SDS011;25037;49.488;9.900;2023-03-04T11:46:27;16.33;;;9.80;;
39324;SDS011;25037;49.488;9.900;2023-03-04T11:49:15;16.48;;;9.40;;
39324;SDS011;25037;49.488;9.900;2023-03-04T11:52:03;16.45;;;9.40;;
39324;SDS011;25037;49.488;9.900;2023-03-04T11:54:58;16.45;;;9.60;;
39324;SDS011;25037;49.488;9.900;2023-03-04T12:00:48;16.42;;;10.30;;
39324;SDS011;25037;49.488;9.900;2023-03-04T12:08:38;17.98;;;9.18;;
39324;SDS011;25037;49.488;9.900;2023-03-04T12:11:35;17.17;;;9.90;;
39324;SDS011;25037;49.488;9.900;2023-03-04T12:19:26;16.33;;;9.13;;
39324;SDS011;25037;49.488;9.900;2023-03-04T12:22:18;13.38;;;9.27;;
39324;SDS011;25037;49.488;9.900;2023-03-04T12:34:25;14.85;;;9.32;;
39324;SDS011;25037;49.488;9.900;2023-03-04T12:37:24;14.32;;;9.13;;
39324;SDS011;25037;49.488;9.900;2023-03-04T12:43:13;15.00;;;9.32;;
39324;SDS011;25037;49.488;9.900;2023-03-04T12:46:14;15.40;;;9.27;;
39324;SDS011;25037;49.488;9.900;2023-03-04T12:55:09;17.73;;;9.82;;
39324;SDS011;25037;49.488;9.900;2023-03-04T12:57:39;13.82;;;8.77;;
39324;SDS011;25037;49.488;9.900;2023-03-04T13:02:47;15.40;;;9.13;;
39324;SDS011;25037;49.488;9.900;2023-03-04T13:05:41;15.68;;;9.15;;
39324;SDS011;25037;49.488;9.900;2023-03-04T13:10:45;13.05;;;8.90;;
39324;SDS011;25037;49.488;9.900;2023-03-04T13:16:48;12.95;;;8.63;;
39324;SDS011;25037;49.488;9.900;2023-03-04T13:18:58;17.42;;;9.02;;
39324;SDS011;25037;49.488;9.900;2023-03-04T13:21:25;15.68;;;8.43;;
39324;SDS011;25037;49.488;9.900;2023-03-04T13:23:54;17.90;;;8.80;;
39324;SDS011;25037;49.488;9.900;2023-03-04T13:26:27;17.27;;;8.55;;
39324;SDS011;25037;49.488;9.900;2023-03-04T13:29:29;15.32;;;9.18;;
39324;SDS011;25037;49.488;9.900;2023-03-04T13:31:58;14.82;;;8.80;;
39324;SDS011;25037;49.488;9.900;2023-03-04T13:34:47;16.73;;;9.25;;
39324;SDS011;25037;49.488;9.900;2023-03-04T13:42:48;18.25;;;8.20;;
39324;SDS011;25037;49.488;9.900;2023-03-04T13:47:59;16.25;;;8.90;;
39324;SDS011;25037;49.488;9.900;2023-03-04T13:50:31;18.65;;;8.48;;
39324;SDS011;25037;49.488;9.900;2023-03-04T13:53:19;14.30;;;8.17;;
39324;SDS011;25037;49.488;9.900;2023-03-04T13:56:03;17.42;;;8.52;;
39324;SDS011;25037;49.488;9.900;2023-03-04T13:58:36;17.67;;;8.23;;
39324;SDS011;25037;49.488;9.900;2023-03-04T14:01:04;16.05;;;8.10;;
39324;SDS011;25037;49.488;9.900;2023-03-04T14:03:47;17.55;;;8.57;;
39324;SDS011;25037;49.488;9.900;2023-03-04T14:06:18;14.15;;;7.90;;
39324;SDS011;25037;49.488;9.900;2023-03-04T14:08:47;15.13;;;7.65;;
39324;SDS011;25037;49.488;9.900;2023-03-04T14:11:22;16.17;;;7.40;;
39324;SDS011;25037;49.488;9.900;2023-03-04T14:13:53;14.32;;;7.82;;
39324;SDS011;25037;49.488;9.900;2023-03-04T14:16:22;16.20;;;7.13;;
39324;SDS011;25037;49.488;9.900;2023-03-04T14:19:00;13.10;;;7.10;;
39324;SDS011;25037;49.488;9.900;2023-03-04T14:21:31;13.13;;;7.25;;
39324;SDS011;25037;49.488;9.900;2023-03-04T14:24:01;13.38;;;6.40;;
39324;SDS011;25037;49.488;9.900;2023-03-04T14:26:30;13.38;;;7.13;;
39324;SDS011;25037;49.488;9.900;2023-03-04T14:28:57;13.77;;;6.97;;
39324;SDS011;25037;49.488;9.900;2023-03-04T14:31:26;18.08;;;7.38;;
39324;SDS011;25037;49.488;9.900;2023-03-04T14:33:58;15.30;;;7.30;;
39324;SDS011;25037;49.488;9.900;2023-03-04T14:36:31;12.60;;;6.70;;
39324;SDS011;25037;49.488;9.900;2023-03-04T14:39:00;11.13;;;5.80;;
39324;SDS011;25037;49.488;9.900;2023-03-04T14:41:38;13.73;;;6.75;;
39324;SDS011;25037;49.488;9.900;2023-03-04T14:47:26;18.38;;;7.68;;
39324;SDS011;25037;49.488;9.900;2023-03-04T14:50:06;14.32;;;5.90;;
39324;SDS011;25037;49.488;9.900;2023-03-04T14:52:42;11.93;;;5.97;;
39324;SDS011;25037;49.488;9.900;2023-03-04T14:55:28;13.32;;;6.82;;
39324;SDS011;25037;49.488;9.900;2023-03-04T15:00:48;11.50;;;5.95;;
39324;SDS011;25037;49.488;9.900;2023-03-04T15:03:30;14.35;;;6.60;;
39324;SDS011;25037;49.488;9.900;2023-03-04T15:06:14;16.80;;;6.55;;
39324;SDS011;25037;49.488;9.900;2023-03-04T15:09:21;21.98;;;7.53;;
39324;SDS011;25037;49.488;9.900;2023-03-04T15:11:47;15.50;;;7.07;;
39324;SDS011;25037;49.488;9.900;2023-03-04T15:17:04;12.48;;;6.65;;
39324;SDS011;25037;49.488;9.900;2023-03-04T15:19:56;16.67;;;6.55;;
39324;SDS011;25037;49.488;9.900;2023-03-04T15:22:32;12.50;;;6.20;;
39324;SDS011;25037;49.488;9.900;2023-03-04T15:25:00;13.05;;;6.60;;
39324;SDS011;25037;49.488;9.900;2023-03-04T15:27:27;16.15;;;7.15;;
39324;SDS011;25037;49.488;9.900;2023-03-04T15:29:56;13.68;;;7.25;;
39324;SDS011;25037;49.488;9.900;2023-03-04T15:32:25;14.43;;;7.32;;
39324;SDS011;25037;49.488;9.900;2023-03-04T15:34:52;14.82;;;6.45;;
39324;SDS011;25037;49.488;9.900;2023-03-04T15:37:26;14.00;;;7.05;;
39324;SDS011;25037;49.488;9.900;2023-03-04T15:39:54;18.33;;;7.18;;
39324;SDS011;25037;49.488;9.900;2023-03-04T15:42:22;11.73;;;6.47;;
39324;SDS011;25037;49.488;9.900;2023-03-04T15:44:50;12.85;;;6.57;;
39324;SDS011;25037;49.488;9.900;2023-03-04T15:47:16;13.90;;;6.72;;
39324;SDS011;25037;49.488;9.900;2023-03-04T15:49:43;16.08;;;6.82;;
39324;SDS011;25037;49.488;9.900;2023-03-04T15:52:17;16.45;;;7.13;;
39324;SDS011;25037;49.488;9.900;2023-03-04T15:54:49;17.47;;;6.43;;
39324;SDS011;25037;49.488;9.900;2023-03-04T15:57:20;14.77;;;6.88;;
39324;SDS011;25037;49.488;9.900;2023-03-04T15:59:49;15.23;;;7.15;;
39324;SDS011;25037;49.488;9.900;2023-03-04T16:02:21;15.18;;;6.72;;
39324;SDS011;25037;49.488;9.900;2023-03-04T16:04:50;12.45;;;6.25;;
39324;SDS011;25037;49.488;9.900;2023-03-04T16:07:17;16.67;;;6.65;;
39324;SDS011;25037;49.488;9.900;2023-03-04T16:09:45;13.23;;;6.18;;
39324;SDS011;25037;49.488;9.900;2023-03-04T16:12:14;14.05;;;6.90;;